Time;durP1;ratioP1;P1;durP2;ratioP2;P2;SDS_P1;SDS_P2;PMS_P1;PMS_P2;Temp;Humidity;BMP_temperature;BMP_pressure;BME280_temperature;BME280_humidity;BME280_pressure;Samples;Min_cycle;Max_cycle;Signal;HPM_P1;HPM_P2
2022/01/03 00:01:33;;;;;;;1.70;0.90;;;20.50;70.90;;;;;;4941754;29;20207;-22
2022/01/03 00:03:59;;;;;;;1.00;0.80;;;20.40;71.50;;;;;;4942931;28;20520;-22
2022/01/03 00:06:25;;;;;;;2.47;0.90;;;20.30;73.10;;;;;;4942352;29;20586;-21
2022/01/03 00:08:50;;;;;;;1.00;0.80;;;20.10;74.00;;;;;;4942433;29;20451;-23
2022/01/03 00:11:23;;;;;;;1.20;0.90;;;20.10;74.50;;;;;;4942442;29;20262;-22
2022/01/03 00:13:51;;;;;;;1.63;1.03;;;20.10;74.80;;;;;;4942556;29;20175;-22
2022/01/03 00:16:17;;;;;;;2.40;1.00;;;19.90;75.60;;;;;;4942106;29;20178;-25
2022/01/03 00:18:43;;;;;;;1.50;0.90;;;19.90;76.30;;;;;;4957364;28;20305;-23
2022/01/03 00:21:16;;;;;;;2.60;1.17;;;19.90;76.20;;;;;;4941674;29;20752;-22
2022/01/03 00:23:50;;;;;;;1.27;0.90;;;19.90;76.40;;;;;;4942068;29;20212;-23
2022/01/03 00:26:23;;;;;;;2.13;1.00;;;19.90;76.40;;;;;;4941416;29;20190;-21
2022/01/03 00:28:58;;;;;;;1.17;0.87;;;19.90;76.80;;;;;;4941665;29;20441;-21
2022/01/03 00:31:40;;;;;;;1.50;0.80;;;19.90;76.70;;;;;;4941788;29;20185;-22
2022/01/03 00:34:08;;;;;;;2.57;1.00;;;19.90;76.80;;;;;;4951621;29;20471;-22
2022/01/03 00:36:36;;;;;;;0.90;0.83;;;19.80;77.00;;;;;;4956831;28;20228;-22
2022/01/03 00:39:03;;;;;;;1.23;0.90;;;19.80;77.30;;;;;;4957486;28;20210;-21
2022/01/03 00:41:29;;;;;;;3.13;1.10;;;19.60;78.00;;;;;;4957056;28;20211;-23
2022/01/03 00:43:55;;;;;;;1.87;0.80;;;19.60;78.80;;;;;;4942046;29;20170;-21
2022/01/03 00:46:29;;;;;;;1.37;0.83;;;19.60;79.20;;;;;;4941864;29;20187;-20
2022/01/03 00:48:55;;;;;;;2.30;0.90;;;19.50;79.50;;;;;;4941034;29;20183;-23
2022/01/03 00:51:21;;;;;;;1.60;1.00;;;19.40;80.20;;;;;;4941149;29;20169;-25
2022/01/03 00:53:48;;;;;;;1.97;1.00;;;19.40;80.60;;;;;;4940342;29;20231;-21
2022/01/03 00:56:35;;;;;;;2.20;1.20;;;19.40;80.90;;;;;;4940724;29;20181;-22
2022/01/03 00:59:09;;;;;;;1.40;1.00;;;19.30;81.50;;;;;;4940979;29;20206;-21
2022/01/03 01:01:37;;;;;;;1.50;0.80;;;19.30;81.50;;;;;;4956733;29;20702;-23
2022/01/03 01:04:09;;;;;;;1.77;0.97;;;19.30;81.60;;;;;;4941516;29;20576;-21
2022/01/03 01:06:37;;;;;;;1.40;1.00;;;19.20;82.10;;;;;;4941238;29;20541;-23
2022/01/03 01:09:07;;;;;;;1.23;0.80;;;19.20;82.30;;;;;;4940725;29;20239;-22
2022/01/03 01:11:34;;;;;;;1.77;0.90;;;19.20;82.60;;;;;;4956424;29;20184;-23
2022/01/03 01:14:02;;;;;;;2.03;1.00;;;19.10;82.90;;;;;;4941208;29;20175;-25
2022/01/03 01:16:29;;;;;;;1.53;0.97;;;19.10;82.80;;;;;;4956519;29;20244;-21
2022/01/03 01:18:55;;;;;;;1.63;1.00;;;19.10;83.00;;;;;;4956605;28;20284;-22
2022/01/03 01:21:22;;;;;;;2.87;1.10;;;19.10;83.20;;;;;;4941652;29;20294;-22
2022/01/03 01:23:50;;;;;;;2.17;1.10;;;19.00;83.70;;;;;;4956197;28;20511;-21
2022/01/03 01:29:04;;;;;;;2.70;1.20;;;19.00;84.10;;;;;;4940825;29;20449;-22
2022/01/03 01:31:34;;;;;;;2.60;1.10;;;19.00;84.20;;;;;;4940152;29;20187;-20
2022/01/03 01:34:03;;;;;;;4.13;1.30;;;19.00;84.10;;;;;;4941101;29;20171;-20
2022/01/03 01:36:29;;;;;;;2.20;1.10;;;19.00;84.40;;;;;;4940107;29;20189;-23
2022/01/03 01:39:00;;;;;;;2.37;1.10;;;19.00;84.50;;;;;;4940193;29;20244;-23
2022/01/03 01:41:28;;;;;;;2.40;1.03;;;18.90;84.80;;;;;;4940152;29;20203;-21
2022/01/03 01:43:58;;;;;;;2.07;0.93;;;18.80;84.90;;;;;;4955875;29;20235;-21
2022/01/03 01:46:24;;;;;;;2.10;1.23;;;18.80;85.30;;;;;;4956208;28;20251;-20
2022/01/03 01:48:51;;;;;;;2.73;1.20;;;18.80;85.50;;;;;;4955384;28;20520;-19
2022/01/03 01:51:22;;;;;;;1.97;1.17;;;18.80;85.50;;;;;;4955936;29;20181;-21
2022/01/03 01:53:55;;;;;;;2.47;1.30;;;18.70;85.80;;;;;;4956194;28;20259;-18
2022/01/03 01:56:26;;;;;;;3.20;1.10;;;18.70;85.70;;;;;;4956123;28;20237;-23
2022/01/03 01:58:55;;;;;;;2.60;1.20;;;18.70;86.10;;;;;;4956132;28;20169;-21
2022/01/03 02:01:22;;;;;;;3.60;1.30;;;18.70;86.30;;;;;;4940190;29;20203;-21
2022/01/03 02:03:57;;;;;;;3.47;1.43;;;18.70;86.40;;;;;;4940339;29;20187;-21
2022/01/03 02:06:44;;;;;;;3.03;1.30;;;18.60;86.30;;;;;;4940319;29;20193;-22
2022/01/03 02:09:46;;;;;;;2.37;1.20;;;18.60;86.70;;;;;;4939908;29;20540;-21
2022/01/03 02:12:16;;;;;;;2.83;1.40;;;18.60;86.70;;;;;;4938002;29;20293;-21
2022/01/03 02:14:44;;;;;;;2.10;1.17;;;18.60;86.90;;;;;;4956002;28;20184;-21
2022/01/03 02:17:10;;;;;;;1.80;1.10;;;18.50;86.90;;;;;;4940425;29;20270;-25
2022/01/03 02:19:40;;;;;;;3.17;1.30;;;18.50;86.90;;;;;;4940232;29;20267;-23
2022/01/03 02:22:10;;;;;;;2.40;1.20;;;18.50;87.00;;;;;;4955820;28;20176;-20
2022/01/03 02:24:36;;;;;;;3.17;1.33;;;18.50;87.00;;;;;;4939417;29;20578;-22
2022/01/03 02:27:02;;;;;;;4.30;1.43;;;18.50;87.20;;;;;;4954239;29;20239;-22
2022/01/03 02:29:28;;;;;;;3.63;1.27;;;18.50;87.40;;;;;;4936824;29;20215;-19
2022/01/03 02:31:54;;;;;;;2.17;1.20;;;18.40;87.50;;;;;;4936977;29;20570;-25
2022/01/03 02:34:20;;;;;;;3.60;1.20;;;18.40;87.60;;;;;;4937215;29;20550;-21
2022/01/03 02:36:47;;;;;;;2.37;1.40;;;18.40;87.50;;;;;;4953018;29;20190;-23
2022/01/03 02:39:14;;;;;;;2.33;1.20;;;18.40;87.60;;;;;;4955485;29;20180;-23
2022/01/03 02:41:40;;;;;;;2.40;1.20;;;18.40;87.50;;;;;;4939023;29;20211;-21
2022/01/03 02:44:05;;;;;;;3.63;1.50;;;18.40;87.90;;;;;;4929862;29;20217;-24
2022/01/03 02:46:33;;;;;;;4.83;1.43;;;18.40;87.80;;;;;;4940226;29;20450;-21
2022/01/03 02:48:58;;;;;;;3.20;1.50;;;18.30;87.80;;;;;;4939889;29;20168;-22
2022/01/03 02:51:24;;;;;;;4.17;1.50;;;18.30;87.90;;;;;;4942479;29;20198;-22
2022/01/03 02:53:49;;;;;;;2.93;1.23;;;18.30;88.00;;;;;;4943476;29;20192;-21
2022/01/03 02:56:16;;;;;;;4.23;1.27;;;18.30;88.10;;;;;;4943674;29;20170;-22
2022/01/03 02:58:42;;;;;;;3.13;1.33;;;18.30;88.20;;;;;;4943218;29;20173;-23
2022/01/03 03:01:08;;;;;;;2.77;1.30;;;18.30;88.30;;;;;;4943919;29;20223;-24
2022/01/03 03:03:33;;;;;;;4.17;1.53;;;18.30;88.40;;;;;;4943382;29;20180;-22
2022/01/03 03:06:02;;;;;;;3.20;1.33;;;18.20;88.30;;;;;;4943763;29;20278;-23
2022/01/03 03:08:28;;;;;;;2.60;1.50;;;18.20;88.40;;;;;;4943397;29;20215;-22
2022/01/03 03:10:54;;;;;;;3.30;1.30;;;18.20;88.50;;;;;;4943979;29;20184;-23
2022/01/03 03:13:20;;;;;;;2.87;1.23;;;18.20;88.50;;;;;;4958999;29;20204;-22
2022/01/03 03:15:45;;;;;;;4.17;1.50;;;18.20;88.60;;;;;;4943820;29;20156;-23
2022/01/03 03:18:11;;;;;;;4.10;1.30;;;18.20;89.40;;;;;;4943109;29;20189;-22
2022/01/03 03:20:37;;;;;;;3.53;1.17;;;18.10;88.70;;;;;;4943055;29;20213;-23
2022/01/03 03:23:04;;;;;;;3.10;1.17;;;18.10;88.80;;;;;;4943599;29;20162;-23
2022/01/03 03:25:32;;;;;;;3.43;1.40;;;18.10;88.80;;;;;;4943181;29;20204;-21
2022/01/03 03:28:04;;;;;;;3.70;1.40;;;18.10;88.80;;;;;;4959073;28;20171;-24
2022/01/03 03:30:33;;;;;;;2.60;1.20;;;18.10;89.00;;;;;;4943648;29;20172;-23
2022/01/03 03:33:09;;;;;;;1.87;1.07;;;18.10;89.00;;;;;;4943467;29;20443;-21
2022/01/03 03:35:36;;;;;;;3.23;1.40;;;18.10;89.00;;;;;;4943047;29;20250;-22
2022/01/03 03:38:02;;;;;;;3.37;1.57;;;18.00;89.00;;;;;;4958432;28;20251;-22
2022/01/03 03:40:28;;;;;;;3.27;1.50;;;18.00;89.20;;;;;;4943235;29;20787;-24
2022/01/03 03:42:54;;;;;;;3.30;1.20;;;18.00;89.20;;;;;;4958918;28;20180;-22
2022/01/03 03:45:26;;;;;;;3.13;1.23;;;18.00;89.40;;;;;;4942865;29;20257;-23
2022/01/03 03:47:53;;;;;;;2.60;1.10;;;17.90;89.60;;;;;;4942705;29;20247;-23
2022/01/03 03:50:20;;;;;;;3.33;1.30;;;17.90;89.60;;;;;;4943205;28;20439;-21
2022/01/03 03:52:46;;;;;;;2.30;1.10;;;17.90;89.70;;;;;;4942890;29;20177;-23
2022/01/03 03:55:12;;;;;;;2.70;1.40;;;17.90;89.80;;;;;;4942328;29;20176;-23
2022/01/03 03:57:38;;;;;;;4.00;1.20;;;17.80;89.80;;;;;;4942402;29;20268;-21
2022/01/03 04:00:10;;;;;;;2.80;1.10;;;17.80;89.90;;;;;;4942805;28;20306;-23
2022/01/03 04:02:36;;;;;;;2.67;1.30;;;18.40;87.70;;;;;;4957142;28;20174;-23
2022/01/03 04:05:04;;;;;;;2.23;1.30;;;21.20;67.80;;;;;;4941310;29;20180;-21
2022/01/03 04:07:30;;;;;;;2.20;1.03;;;21.80;60.00;;;;;;4926138;29;20174;-21
2022/01/03 04:09:56;;;;;;;3.60;1.43;;;22.00;58.70;;;;;;4942938;29;20179;-23
2022/01/03 04:12:21;;;;;;;2.27;1.10;;;22.20;58.00;;;;;;4942321;29;20260;-24
2022/01/03 04:14:47;;;;;;;2.63;1.30;;;22.30;57.30;;;;;;4957552;28;20485;-22
2022/01/03 04:17:14;;;;;;;3.00;1.30;;;22.70;56.20;;;;;;4942195;29;20184;-22
2022/01/03 04:19:39;;;;;;;2.47;1.20;;;23.10;55.10;;;;;;4957501;28;20190;-21
2022/01/03 04:22:05;;;;;;;3.00;1.50;;;23.20;54.60;;;;;;4942299;29;20164;-20
2022/01/03 04:24:31;;;;;;;2.37;1.30;;;23.20;54.40;;;;;;4941423;29;20247;-23
2022/01/03 04:26:57;;;;;;;2.90;1.40;;;23.20;54.30;;;;;;4941727;29;20629;-21
2022/01/03 04:29:23;;;;;;;2.80;1.20;;;23.40;54.00;;;;;;4941925;29;20164;-21
2022/01/03 04:31:48;;;;;;;2.07;1.10;;;23.70;53.30;;;;;;4942009;29;20459;-25
2022/01/03 04:34:16;;;;;;;1.83;1.10;;;23.90;52.80;;;;;;4941780;29;20188;-23
2022/01/03 04:36:42;;;;;;;1.77;1.00;;;23.90;52.60;;;;;;4941870;29;20262;-22
2022/01/03 04:39:08;;;;;;;2.73;1.33;;;23.90;52.60;;;;;;4941871;29;20259;-23
2022/01/03 04:41:34;;;;;;;2.60;1.17;;;23.90;52.60;;;;;;4956504;29;20236;-21
2022/01/03 04:44:01;;;;;;;3.40;1.17;;;23.90;52.40;;;;;;4956953;28;20176;-23
2022/01/03 04:46:27;;;;;;;2.73;1.40;;;24.10;52.10;;;;;;4941239;29;20199;-21
2022/01/03 04:48:53;;;;;;;2.83;1.40;;;24.40;51.80;;;;;;4940590;29;20184;-24
2022/01/03 04:51:19;;;;;;;3.00;1.30;;;24.50;51.40;;;;;;4941233;29;20183;-24
2022/01/03 04:53:47;;;;;;;3.70;1.37;;;24.50;51.20;;;;;;4941015;29;20176;-24
2022/01/03 04:56:13;;;;;;;3.27;1.40;;;24.30;51.30;;;;;;4956596;28;20239;-25
2022/01/03 04:58:39;;;;;;;3.93;1.50;;;24.10;51.50;;;;;;4956383;29;20275;-22
2022/01/03 05:01:06;;;;;;;2.50;1.13;;;24.10;51.70;;;;;;4941338;29;20665;-22
2022/01/03 05:03:31;;;;;;;3.13;1.37;;;23.90;52.00;;;;;;4956749;28;20176;-23
2022/01/03 05:05:57;;;;;;;3.97;1.63;;;23.70;52.20;;;;;;4956305;29;20603;-22
2022/01/03 05:08:23;;;;;;;2.13;1.33;;;23.50;52.60;;;;;;4941238;29;20230;-25
2022/01/03 05:10:49;;;;;;;4.27;1.90;;;23.30;52.90;;;;;;4956424;28;20239;-22
2022/01/03 05:13:15;;;;;;;4.90;1.70;;;23.20;53.20;;;;;;4941181;29;20176;-23
2022/01/03 05:15:41;;;;;;;4.60;1.80;;;23.10;53.50;;;;;;4940399;29;20243;-22
2022/01/03 05:18:06;;;;;;;4.27;1.70;;;23.00;53.90;;;;;;4941033;29;20202;-22
2022/01/03 05:20:32;;;;;;;5.20;1.80;;;22.90;53.90;;;;;;4940117;29;20236;-23
2022/01/03 05:22:58;;;;;;;5.43;1.50;;;22.70;54.20;;;;;;4941007;29;20263;-22
2022/01/03 05:25:24;;;;;;;4.00;1.47;;;22.50;54.90;;;;;;4940634;29;20180;-21
2022/01/03 05:27:50;;;;;;;5.67;1.90;;;22.40;55.20;;;;;;4939972;29;20187;-22
2022/01/03 05:30:16;;;;;;;4.50;1.70;;;22.10;55.90;;;;;;4940464;29;20164;-24
2022/01/03 05:32:41;;;;;;;5.70;2.03;;;21.90;56.40;;;;;;4940584;29;20257;-21
2022/01/03 05:35:09;;;;;;;6.27;2.13;;;21.80;57.20;;;;;;4940083;29;20176;-24
2022/01/03 05:37:34;;;;;;;4.83;1.77;;;21.50;58.00;;;;;;4940527;29;20274;-22
2022/01/03 05:40:00;;;;;;;6.37;2.13;;;21.20;58.90;;;;;;4955975;28;20304;-23
2022/01/03 05:42:25;;;;;;;4.83;1.80;;;21.10;59.90;;;;;;4940436;29;20223;-23
2022/01/03 05:44:52;;;;;;;4.57;1.70;;;21.00;60.50;;;;;;4940428;29;20601;-22
2022/01/03 05:47:17;;;;;;;6.83;2.00;;;20.90;61.10;;;;;;4939872;29;20247;-24
2022/01/03 05:49:43;;;;;;;4.80;2.00;;;20.90;61.50;;;;;;4940188;29;20627;-24
2022/01/03 05:52:09;;;;;;;5.83;2.23;;;21.20;60.00;;;;;;4940435;29;20192;-21
2022/01/03 05:54:37;;;;;;;5.77;2.20;;;21.80;58.30;;;;;;4940569;29;20163;-21
2022/01/03 05:57:03;;;;;;;7.40;2.70;;;22.70;56.10;;;;;;4940534;29;20654;-25
2022/01/03 05:59:28;;;;;;;4.67;2.30;;;23.60;53.80;;;;;;4938730;29;20797;-22
2022/01/03 06:01:55;;;;;;;6.27;2.27;;;24.20;52.20;;;;;;4954968;29;20181;-22
2022/01/03 06:04:34;;;;;;;9.17;2.57;;;24.50;51.20;;;;;;4939915;29;20168;-22
2022/01/03 06:07:05;;;;;;;6.93;2.23;;;24.40;51.00;;;;;;4940098;29;20190;-23
2022/01/03 06:09:31;;;;;;;8.80;2.40;;;24.50;50.70;;;;;;4939927;29;20185;-21
2022/01/03 06:11:58;;;;;;;7.33;2.30;;;24.50;50.70;;;;;;4940105;29;20196;-22
2022/01/03 06:14:25;;;;;;;6.23;2.67;;;24.40;50.70;;;;;;4955422;28;20168;-24
2022/01/03 06:16:52;;;;;;;5.30;2.50;;;24.50;50.60;;;;;;4955553;28;20172;-22
2022/01/03 06:19:18;;;;;;;8.23;2.20;;;24.50;50.30;;;;;;4939602;29;20188;-24
2022/01/03 06:21:44;;;;;;;5.97;2.30;;;24.50;50.40;;;;;;4939183;29;20196;-20
2022/01/03 06:24:17;;;;;;;7.67;2.40;;;24.50;50.30;;;;;;4939942;29;20641;-23
2022/01/03 06:26:44;;;;;;;8.03;2.50;;;24.30;50.40;;;;;;4945417;29;20157;-22
2022/01/03 06:29:12;;;;;;;6.93;2.33;;;24.10;50.60;;;;;;4961018;29;20191;-22
2022/01/03 06:31:38;;;;;;;5.90;2.30;;;24.00;50.90;;;;;;4945602;29;20187;-26
2022/01/03 06:34:04;;;;;;;3.73;2.00;;;23.70;51.20;;;;;;4945990;29;20267;-21
2022/01/03 06:36:30;;;;;;;6.63;2.50;;;23.60;51.40;;;;;;4945183;29;20303;-24
2022/01/03 06:38:57;;;;;;;5.30;2.30;;;23.30;51.90;;;;;;4945848;29;20531;-24
2022/01/03 06:41:24;;;;;;;6.60;2.33;;;23.20;52.30;;;;;;4945216;29;20472;-23
2022/01/03 06:43:50;;;;;;;7.40;2.90;;;22.90;52.70;;;;;;4945583;29;20289;-22
2022/01/03 06:46:16;;;;;;;7.40;2.60;;;22.80;53.10;;;;;;4960502;28;20278;-21
2022/01/03 06:48:43;;;;;;;7.30;2.90;;;22.60;53.60;;;;;;4944990;29;20255;-23
2022/01/03 06:51:09;;;;;;;6.63;2.70;;;22.30;54.20;;;;;;4945256;29;20167;-23
2022/01/03 06:53:36;;;;;;;7.33;2.87;;;22.10;55.20;;;;;;4961152;28;20179;-22
2022/01/03 06:56:02;;;;;;;6.13;2.73;;;21.90;55.40;;;;;;4960964;28;20278;-23
2022/01/03 06:58:28;;;;;;;7.30;2.80;;;21.80;55.90;;;;;;4960555;28;20180;-22
2022/01/03 07:00:54;;;;;;;7.67;2.30;;;21.60;56.50;;;;;;4960433;29;20204;-22
2022/01/03 07:03:21;;;;;;;7.37;2.57;;;21.40;57.30;;;;;;4945208;29;20234;-21
2022/01/03 07:05:47;;;;;;;10.43;2.87;;;21.30;57.90;;;;;;4945603;29;20168;-22
2022/01/03 07:08:13;;;;;;;7.07;3.10;;;21.20;58.50;;;;;;4944964;29;20191;-26
2022/01/03 07:10:38;;;;;;;8.53;3.00;;;21.20;58.90;;;;;;4944667;29;20195;-23
2022/01/03 07:13:05;;;;;;;9.10;3.10;;;21.20;58.70;;;;;;4945395;29;20464;-24
2022/01/03 07:20:59;;;;;;;8.40;3.10;;;21.80;57.50;;;;;;4945126;29;20214;-22
2022/01/03 07:23:24;;;;;;;7.83;3.50;;;22.50;56.30;;;;;;4945159;29;20242;-23
2022/01/03 07:25:50;;;;;;;8.97;3.63;;;22.80;55.60;;;;;;4945052;29;20295;-21
2022/01/03 07:28:17;;;;;;;10.40;3.43;;;23.10;54.90;;;;;;4944847;29;20164;-23
2022/01/03 07:30:44;;;;;;;10.53;3.30;;;23.40;54.20;;;;;;4945021;29;20639;-22
2022/01/03 07:33:10;;;;;;;8.00;3.40;;;23.80;53.40;;;;;;4943915;29;20188;-23
2022/01/03 07:35:36;;;;;;;9.87;3.90;;;24.10;52.40;;;;;;4960401;28;20271;-25
2022/01/03 07:38:03;;;;;;;8.40;3.27;;;24.30;52.00;;;;;;4956480;28;20188;-22
2022/01/03 07:40:30;;;;;;;8.03;3.13;;;24.40;51.90;;;;;;4956923;29;20208;-25
2022/01/03 07:42:59;;;;;;;7.83;3.10;;;24.40;51.70;;;;;;4941870;29;20183;-21
2022/01/03 07:45:26;;;;;;;9.13;3.03;;;24.40;51.70;;;;;;4941608;29;20172;-22
2022/01/03 07:47:51;;;;;;;10.57;3.10;;;24.50;51.40;;;;;;4941682;29;20205;-22
2022/01/03 07:50:17;;;;;;;7.80;2.80;;;24.50;51.10;;;;;;4941823;29;20587;-21
2022/01/03 07:52:44;;;;;;;8.57;3.10;;;24.50;51.20;;;;;;4942155;29;20495;-22
2022/01/03 07:55:12;;;;;;;9.43;3.30;;;24.30;51.30;;;;;;4941443;29;20220;-19
2022/01/03 07:57:38;;;;;;;7.90;3.10;;;24.10;51.50;;;;;;4941261;29;20184;-22
2022/01/03 08:00:15;;;;;;;8.43;3.00;;;24.10;51.60;;;;;;4941013;29;20290;-21
2022/01/03 08:02:41;;;;;;;7.50;2.60;;;23.80;51.80;;;;;;4940980;29;20160;-20
2022/01/03 08:05:10;;;;;;;6.50;2.67;;;23.60;52.20;;;;;;4940746;29;20577;-21
2022/01/03 08:07:39;;;;;;;8.53;3.07;;;23.40;52.60;;;;;;4956907;28;20202;-20
2022/01/03 08:10:07;;;;;;;5.90;2.53;;;23.30;52.90;;;;;;4940872;29;20453;-22
2022/01/03 08:12:33;;;;;;;5.90;2.50;;;23.10;53.30;;;;;;4956395;29;20180;-20
2022/01/03 08:14:58;;;;;;;5.97;2.47;;;22.90;53.70;;;;;;4940423;29;20160;-23
2022/01/03 08:17:28;;;;;;;6.40;2.90;;;22.70;54.10;;;;;;4940903;29;20561;-23
2022/01/03 08:19:54;;;;;;;5.83;2.17;;;22.50;54.50;;;;;;4940038;29;20230;-20
2022/01/03 08:22:19;;;;;;;5.77;2.50;;;22.30;54.90;;;;;;4940158;29;20470;-22
2022/01/03 08:24:45;;;;;;;7.37;2.90;;;22.20;55.40;;;;;;4941240;29;20184;-20
2022/01/03 08:27:11;;;;;;;7.03;2.50;;;22.10;55.70;;;;;;4956738;28;20166;-22
2022/01/03 08:29:37;;;;;;;6.23;2.27;;;22.00;55.90;;;;;;4956091;29;20187;-18
2022/01/03 08:32:04;;;;;;;4.80;2.20;;;21.80;56.70;;;;;;4941003;29;20455;-22
2022/01/03 08:34:29;;;;;;;8.00;2.47;;;21.60;56.90;;;;;;4941003;29;20538;-23
2022/01/03 08:36:55;;;;;;;6.77;2.67;;;21.50;57.40;;;;;;4939994;29;20178;-18
2022/01/03 08:39:21;;;;;;;5.70;2.33;;;21.40;57.80;;;;;;4954908;29;20208;-22
2022/01/03 08:41:47;;;;;;;6.57;2.40;;;21.20;58.40;;;;;;4939104;29;20214;-22
2022/01/03 08:44:13;;;;;;;6.53;1.97;;;20.90;59.20;;;;;;4939534;29;20231;-21
2022/01/03 08:46:38;;;;;;;6.60;2.43;;;20.70;60.20;;;;;;4955752;28;20173;-23
2022/01/03 08:49:04;;;;;;;7.83;2.30;;;20.60;61.60;;;;;;4955185;28;20221;-20
2022/01/03 08:51:30;;;;;;;4.63;1.93;;;20.90;60.70;;;;;;4940397;29;20176;-20
2022/01/03 08:53:56;;;;;;;7.70;2.20;;;21.60;58.50;;;;;;4939813;29;20185;-22
2022/01/03 08:56:22;;;;;;;5.70;1.97;;;22.60;56.10;;;;;;4940156;29;20471;-20
2022/01/03 08:58:48;;;;;;;5.87;2.30;;;23.60;53.70;;;;;;4939767;29;20176;-20
2022/01/03 09:01:14;;;;;;;4.40;2.00;;;24.40;51.70;;;;;;4939860;29;20203;-23
2022/01/03 09:03:39;;;;;;;5.53;2.53;;;24.40;51.00;;;;;;4940012;29;20219;-22
2022/01/03 09:06:11;;;;;;;5.60;1.93;;;24.10;51.00;;;;;;4940191;29;20161;-22
2022/01/03 09:08:37;;;;;;;6.27;2.00;;;24.00;51.20;;;;;;4939493;29;20215;-23
2022/01/03 09:11:02;;;;;;;5.43;2.00;;;23.70;51.40;;;;;;4939933;29;20226;-21
2022/01/03 09:13:28;;;;;;;5.50;2.37;;;23.70;51.70;;;;;;4939484;29;20185;-21
2022/01/03 09:15:55;;;;;;;5.17;1.90;;;23.70;51.80;;;;;;4939761;29;20255;-22
2022/01/03 09:18:22;;;;;;;6.73;2.33;;;23.90;51.50;;;;;;4940020;29;20570;-21
2022/01/03 09:20:48;;;;;;;4.97;1.93;;;23.80;51.40;;;;;;4954283;28;20212;-21
2022/01/03 09:23:22;;;;;;;5.93;2.13;;;23.70;51.50;;;;;;4938950;29;20187;-23
2022/01/03 09:31:33;;;;;;;3.90;1.93;;;23.40;52.10;;;;;;4920527;29;20469;-22
2022/01/03 09:34:01;;;;;;;7.37;2.00;;;23.20;52.40;;;;;;4905791;29;20180;-21
2022/01/03 09:36:28;;;;;;;6.13;2.40;;;23.00;53.20;;;;;;4919926;29;20200;-23
2022/01/03 09:38:54;;;;;;;4.43;2.10;;;22.90;53.10;;;;;;4920655;29;20165;-23
2022/01/03 09:41:23;;;;;;;5.27;2.20;;;22.70;53.30;;;;;;4935600;29;20201;-23
2022/01/03 09:43:55;;;;;;;5.70;1.80;;;22.50;53.80;;;;;;4935894;29;20184;-21
2022/01/03 09:46:26;;;;;;;4.33;1.80;;;22.40;54.30;;;;;;4938815;29;20172;-24
2022/01/03 09:48:54;;;;;;;4.90;1.93;;;22.10;54.90;;;;;;4939254;29;20680;-23
2022/01/03 09:51:31;;;;;;;12.73;2.30;;;22.00;55.50;;;;;;4954164;28;20180;-21
2022/01/03 09:54:01;;;;;;;6.13;2.17;;;21.80;56.10;;;;;;4938955;29;20169;-22
2022/01/03 09:56:30;;;;;;;5.00;2.00;;;21.70;56.60;;;;;;4939117;29;20180;-21
2022/01/03 09:58:56;;;;;;;5.73;1.90;;;21.70;56.80;;;;;;4954191;28;20183;-23
2022/01/03 10:01:23;;;;;;;6.00;2.23;;;21.70;57.10;;;;;;4938142;29;20207;-20
2022/01/03 10:03:49;;;;;;;6.43;2.00;;;21.70;57.10;;;;;;4938284;29;20543;-21
2022/01/03 10:06:17;;;;;;;4.07;2.00;;;21.70;57.20;;;;;;4938705;28;20174;-21
2022/01/03 10:08:44;;;;;;;5.27;2.07;;;21.80;56.90;;;;;;4937693;29;20196;-21
2022/01/03 10:11:09;;;;;;;5.20;2.20;;;22.10;56.30;;;;;;4937571;29;20286;-21
2022/01/03 10:13:35;;;;;;;7.57;2.40;;;22.60;55.10;;;;;;4953996;28;20283;-25
2022/01/03 10:16:01;;;;;;;4.27;1.87;;;23.20;53.60;;;;;;4938713;29;20504;-22
2022/01/03 10:18:27;;;;;;;3.53;1.57;;;23.70;52.60;;;;;;4953529;28;20222;-20
2022/01/03 10:20:54;;;;;;;7.47;1.87;;;24.10;51.50;;;;;;4938490;29;20666;-24
2022/01/03 10:23:20;;;;;;;6.17;2.10;;;24.30;50.90;;;;;;4937433;29;20180;-26
2022/01/03 10:25:50;;;;;;;5.00;2.13;;;24.40;51.00;;;;;;4937997;29;20180;-23
2022/01/03 10:28:27;;;;;;;7.73;2.27;;;24.30;50.40;;;;;;4938176;29;20211;-22
2022/01/03 10:30:53;;;;;;;7.77;1.80;;;24.40;50.30;;;;;;4937256;29;20231;-23
2022/01/03 10:33:22;;;;;;;6.63;2.20;;;24.40;50.30;;;;;;4952495;28;20198;-24
2022/01/03 10:35:56;;;;;;;4.83;2.27;;;24.40;50.20;;;;;;4953620;28;20238;-22
2022/01/03 10:38:44;;;;;;;5.50;2.20;;;24.50;50.00;;;;;;4952886;29;20176;-23
2022/01/03 10:41:18;;;;;;;7.10;1.97;;;24.50;49.90;;;;;;4938442;29;20203;-23
2022/01/03 10:43:50;;;;;;;5.67;2.30;;;24.40;49.90;;;;;;4938688;29;20160;-22
2022/01/03 10:46:25;;;;;;;5.13;2.23;;;24.30;49.90;;;;;;4938487;29;20160;-23
2022/01/03 10:48:53;;;;;;;7.37;2.53;;;24.20;50.10;;;;;;4938491;29;20733;-22
2022/01/03 10:51:27;;;;;;;4.50;2.47;;;24.10;50.10;;;;;;4937502;29;20190;-23
2022/01/03 10:53:54;;;;;;;6.27;2.63;;;23.90;50.40;;;;;;4937564;29;20195;-21
2022/01/03 10:56:36;;;;;;;7.53;2.50;;;23.70;50.80;;;;;;4937779;29;20165;-20
2022/01/03 10:59:24;;;;;;;7.43;2.60;;;23.40;51.20;;;;;;4938179;29;20238;-22
2022/01/03 11:01:50;;;;;;;6.10;2.40;;;23.30;51.60;;;;;;4937464;29;20745;-22
2022/01/03 11:04:33;;;;;;;7.07;2.37;;;23.00;51.90;;;;;;4935633;29;20244;-23
2022/01/03 11:13:06;;;;;;;5.77;2.47;;;22.40;53.50;;;;;;4921916;29;20566;-23
2022/01/03 11:15:32;;;;;;;5.97;2.37;;;22.20;53.80;;;;;;4922103;29;20264;-21
2022/01/03 11:18:21;;;;;;;18.13;2.87;;;22.00;54.40;;;;;;4922137;29;20644;-22
2022/01/03 11:21:08;;;;;;;5.50;2.30;;;21.90;54.90;;;;;;4921733;29;20211;-23
2022/01/03 11:23:34;;;;;;;7.00;2.37;;;21.70;55.30;;;;;;4922061;29;20201;-23
2022/01/03 11:26:12;;;;;;;7.93;2.20;;;21.60;55.50;;;;;;4922288;29;20188;-21
2022/01/03 11:28:39;;;;;;;7.33;2.37;;;21.60;55.70;;;;;;4922654;29;20263;-24
2022/01/03 11:31:06;;;;;;;6.53;2.87;;;21.70;55.60;;;;;;4921471;29;20181;-22
2022/01/03 11:33:34;;;;;;;7.03;2.60;;;21.90;55.20;;;;;;4921808;29;20207;-22
2022/01/03 11:36:04;;;;;;;4.37;2.10;;;22.20;54.40;;;;;;4920778;29;20191;-21
2022/01/03 11:38:33;;;;;;;6.37;2.47;;;22.70;53.30;;;;;;4920813;29;20666;-21
2022/01/03 11:41:01;;;;;;;6.30;2.40;;;23.20;52.20;;;;;;4921009;29;20213;-21
2022/01/03 11:43:29;;;;;;;5.83;2.50;;;23.50;51.40;;;;;;4921232;29;20189;-21
2022/01/03 11:45:55;;;;;;;6.43;2.40;;;23.80;50.70;;;;;;4922424;29;20165;-23
2022/01/03 11:48:21;;;;;;;6.93;2.23;;;24.10;50.10;;;;;;4920782;29;20245;-22
2022/01/03 11:50:50;;;;;;;8.63;2.23;;;24.10;49.80;;;;;;4921817;29;20519;-20
2022/01/03 11:53:20;;;;;;;6.20;2.20;;;24.30;49.60;;;;;;4922385;29;20212;-22
2022/01/03 11:55:53;;;;;;;5.97;2.20;;;24.40;49.30;;;;;;4921922;29;20173;-23
2022/01/03 11:58:45;;;;;;;6.77;2.20;;;24.50;49.10;;;;;;4921653;29;20177;-21
2022/01/03 12:03:59;;;;;;;5.97;2.40;;;24.50;48.90;;;;;;4922256;29;20180;-23
2022/01/03 12:06:33;;;;;;;5.67;2.30;;;24.30;49.00;;;;;;4921648;29;20169;-21
2022/01/03 12:09:11;;;;;;;6.60;2.30;;;24.20;49.20;;;;;;4921998;29;20658;-24
2022/01/03 12:11:53;;;;;;;5.07;2.10;;;23.90;49.40;;;;;;4920713;29;20177;-21
2022/01/03 12:14:21;;;;;;;4.40;2.00;;;23.50;49.90;;;;;;4921057;29;20244;-23
2022/01/03 12:16:50;;;;;;;6.63;2.23;;;23.30;50.30;;;;;;4921597;29;20490;-23
2022/01/03 12:19:40;;;;;;;7.73;2.50;;;23.10;50.70;;;;;;4920316;29;20177;-24
2022/01/03 12:22:14;;;;;;;3.67;1.70;;;23.00;51.10;;;;;;4936426;29;20212;-24
2022/01/03 12:24:48;;;;;;;8.13;2.20;;;22.70;51.50;;;;;;4919625;29;20236;-24
2022/01/03 12:27:14;;;;;;;6.47;2.30;;;22.50;52.10;;;;;;4919689;29;20192;-23
2022/01/03 12:29:55;;;;;;;7.03;2.33;;;22.00;52.80;;;;;;4920757;29;20188;-22
2022/01/03 12:32:23;;;;;;;8.40;2.27;;;21.80;53.70;;;;;;4921261;29;20240;-22
2022/01/03 12:35:11;;;;;;;5.77;2.07;;;21.50;54.20;;;;;;4921036;29;20184;-22
2022/01/03 12:37:37;;;;;;;6.07;2.40;;;21.40;54.80;;;;;;4920187;29;20176;-25
2022/01/03 12:40:06;;;;;;;5.13;2.00;;;21.30;55.20;;;;;;4921116;29;20256;-21
2022/01/03 12:42:53;;;;;;;5.07;2.10;;;21.40;55.20;;;;;;4919967;29;20173;-20
2022/01/03 12:45:39;;;;;;;5.70;1.93;;;21.70;54.70;;;;;;4920455;29;20180;-21
2022/01/03 12:50:51;;;;;;;4.57;1.67;;;22.90;52.30;;;;;;4920978;29;20535;-21
2022/01/03 12:53:23;;;;;;;5.47;1.90;;;23.50;51.00;;;;;;4920680;29;20543;-22
2022/01/03 12:55:53;;;;;;;5.83;2.17;;;24.00;49.90;;;;;;4920033;29;20279;-21
2022/01/03 12:58:19;;;;;;;6.43;1.83;;;24.40;49.10;;;;;;4921136;29;20232;-23
2022/01/03 13:00:55;;;;;;;6.27;2.10;;;24.70;48.60;;;;;;4920098;29;20209;-32
2022/01/03 13:03:49;;;;;;;4.90;2.20;;;24.40;48.60;;;;;;4920207;29;20183;-22
2022/01/03 13:06:19;;;;;;;5.13;2.03;;;24.40;48.70;;;;;;4919635;29;20200;-23
2022/01/03 13:08:48;;;;;;;4.70;1.87;;;24.10;49.00;;;;;;4919397;29;20279;-22
2022/01/03 13:11:17;;;;;;;6.83;2.17;;;24.00;49.70;;;;;;4920295;29;20445;-21
2022/01/03 13:13:48;;;;;;;4.90;1.93;;;24.00;49.20;;;;;;4920036;29;20183;-26
2022/01/03 13:16:44;;;;;;;5.10;2.10;;;24.00;49.30;;;;;;4920413;29;20215;-22
2022/01/03 13:19:20;;;;;;;4.77;2.00;;;23.90;49.40;;;;;;4919805;29;20188;-24